Time;durP1;ratioP1;P1;durP2;ratioP2;P2;SDS_P1;SDS_P2;PMS_P1;PMS_P2;Temp;Humidity;BMP_temperature;BMP_pressure;BME280_temperature;BME280_humidity;BME280_pressure;Samples;Min_cycle;Max_cycle;Signal;HPM_P1;HPM_P2
2022/08/14 00:01:31;;;;;;;5.67;5.27;;;24.60;54.70;;;;;;5073234;28;20452;-44
2022/08/14 00:03:58;;;;;;;6.50;5.90;;;24.60;54.60;;;;;;5087021;28;20479;-44
2022/08/14 00:06:27;;;;;;;6.10;5.53;;;24.60;54.90;;;;;;5052281;28;21169;-44
2022/08/14 00:08:55;;;;;;;8.63;6.03;;;24.60;55.00;;;;;;5087860;28;20474;-44
2022/08/14 00:11:26;;;;;;;5.80;5.30;;;24.60;55.00;;;;;;5072620;28;20802;-44
2022/08/14 00:13:57;;;;;;;5.93;5.30;;;24.60;55.30;;;;;;5086785;28;20512;-44
2022/08/14 00:16:24;;;;;;;5.87;5.37;;;24.60;55.40;;;;;;5087411;28;20450;-44
2022/08/14 00:19:10;;;;;;;6.80;6.20;;;24.60;55.40;;;;;;5087155;28;20456;-44
2022/08/14 00:21:50;;;;;;;5.67;5.17;;;24.60;55.80;;;;;;5081183;28;20905;-44
2022/08/14 00:24:19;;;;;;;5.83;5.33;;;24.60;56.00;;;;;;5062753;28;20468;-44
2022/08/14 00:26:57;;;;;;;6.80;6.20;;;24.70;55.90;;;;;;5079253;28;20459;-44
2022/08/14 00:29:30;;;;;;;6.13;5.63;;;24.70;56.10;;;;;;5072626;28;20467;-44
2022/08/14 00:32:07;;;;;;;6.23;5.63;;;24.70;56.30;;;;;;5072695;28;20479;-44
2022/08/14 00:34:55;;;;;;;6.53;5.97;;;24.60;56.70;;;;;;5075491;28;20458;-44
2022/08/14 00:37:22;;;;;;;6.97;6.30;;;24.60;57.30;;;;;;5059592;28;21143;-43
2022/08/14 00:39:49;;;;;;;6.63;6.03;;;24.50;57.30;;;;;;5074057;28;20468;-44
2022/08/14 00:42:19;;;;;;;6.27;5.67;;;24.50;57.50;;;;;;5070059;28;20496;-44
2022/08/14 00:45:08;;;;;;;6.40;5.80;;;24.50;57.40;;;;;;5072746;28;20459;-44
2022/08/14 00:47:38;;;;;;;6.50;5.90;;;24.50;57.60;;;;;;5074627;28;20976;-44
2022/08/14 00:50:14;;;;;;;6.10;5.60;;;24.40;57.80;;;;;;5082566;28;20547;-44
2022/08/14 00:52:48;;;;;;;7.00;6.33;;;24.40;57.80;;;;;;5075388;28;20872;-44
2022/08/14 00:55:18;;;;;;;6.17;5.67;;;24.40;58.00;;;;;;5071665;28;20468;-44
2022/08/14 00:58:29;;;;;;;6.30;5.80;;;24.30;58.20;;;;;;5089378;28;21066;-44
2022/08/14 01:00:34;;;;;;;6.60;6.00;;;24.20;58.60;;;;;;5089472;28;21225;-44
2022/08/14 01:03:17;;;;;;;6.83;6.33;;;24.20;58.70;;;;;;5075035;28;20911;-44
2022/08/14 01:05:49;;;;;;;6.40;5.90;;;24.20;58.90;;;;;;5077554;28;20450;-44
2022/08/14 01:08:20;;;;;;;7.57;6.80;;;24.10;59.20;;;;;;5088953;28;20464;-44
2022/08/14 01:11:07;;;;;;;13.83;6.30;;;24.10;59.50;;;;;;5091845;28;20464;-44
2022/08/14 01:13:39;;;;;;;7.27;6.57;;;24.10;59.70;;;;;;5092335;28;20961;-44
2022/08/14 01:16:14;;;;;;;6.30;5.80;;;24.00;59.80;;;;;;5088256;28;20853;-44
2022/08/14 01:21:35;;;;;;;6.90;6.30;;;24.00;59.90;;;;;;5088871;28;20463;-44
2022/08/14 01:24:09;;;;;;;7.03;6.43;;;24.00;60.10;;;;;;5089228;28;20483;-44
2022/08/14 01:26:36;;;;;;;6.73;6.13;;;24.00;60.40;;;;;;5086481;28;20852;-44
2022/08/14 01:29:06;;;;;;;7.57;6.90;;;24.00;60.10;;;;;;5073948;28;20474;-44
2022/08/14 01:31:57;;;;;;;8.03;7.33;;;23.90;60.40;;;;;;5091914;28;20785;-44
2022/08/14 01:34:25;;;;;;;7.70;7.10;;;23.80;60.70;;;;;;5087240;28;20543;-44
2022/08/14 01:37:11;;;;;;;7.37;6.73;;;23.70;61.00;;;;;;5088888;28;20451;-44
2022/08/14 01:39:43;;;;;;;7.17;6.57;;;23.70;61.50;;;;;;5084807;28;21022;-44
2022/08/14 01:42:10;;;;;;;8.80;7.90;;;23.60;61.50;;;;;;5078635;28;20460;-44
2022/08/14 01:44:57;;;;;;;10.60;7.37;;;23.70;61.50;;;;;;5087458;28;20458;-44
2022/08/14 01:47:24;;;;;;;8.00;7.30;;;23.70;61.20;;;;;;5087839;28;20460;-44
2022/08/14 01:49:50;;;;;;;7.80;7.10;;;23.70;61.40;;;;;;5088586;28;20462;-44
2022/08/14 01:52:31;;;;;;;7.83;6.83;;;23.70;61.40;;;;;;5083710;28;21043;-44
2022/08/14 01:55:19;;;;;;;8.57;7.67;;;23.70;61.50;;;;;;5087931;28;20459;-44
2022/08/14 01:57:46;;;;;;;7.80;7.00;;;23.70;61.30;;;;;;5086573;28;20515;-44
2022/08/14 02:00:28;;;;;;;8.30;7.50;;;23.70;61.10;;;;;;5078342;28;20517;-44
2022/08/14 02:03:01;;;;;;;8.43;7.47;;;23.60;61.40;;;;;;5074565;28;20972;-44
2022/08/14 02:05:29;;;;;;;8.70;7.90;;;23.50;61.20;;;;;;5069980;28;20459;-43
2022/08/14 02:08:01;;;;;;;8.90;8.10;;;23.50;61.20;;;;;;5088285;28;20996;-43
2022/08/14 02:10:39;;;;;;;8.10;7.40;;;23.50;61.30;;;;;;5087324;28;20461;-43
2022/08/14 02:13:14;;;;;;;7.87;7.17;;;23.40;61.50;;;;;;5064882;28;20457;-43
2022/08/14 02:15:42;;;;;;;7.80;7.10;;;23.30;61.50;;;;;;5086649;28;20959;-44
2022/08/14 02:18:10;;;;;;;8.63;7.33;;;23.40;61.70;;;;;;5088047;28;20739;-44
2022/08/14 02:20:41;;;;;;;7.83;7.23;;;23.40;61.90;;;;;;5072912;28;20494;-44
2022/08/14 02:23:08;;;;;;;8.20;7.40;;;23.30;61.90;;;;;;5088420;28;20864;-44
2022/08/14 02:25:37;;;;;;;8.23;7.63;;;23.30;62.00;;;;;;5085691;28;21030;-44
2022/08/14 02:28:05;;;;;;;8.90;7.63;;;23.30;62.20;;;;;;5088544;28;20543;-44
2022/08/14 02:30:52;;;;;;;9.90;8.90;;;23.30;62.20;;;;;;5082424;28;20457;-44
2022/08/14 02:33:22;;;;;;;8.33;7.63;;;23.30;62.10;;;;;;5089621;28;20473;-44
2022/08/14 02:35:55;;;;;;;9.03;8.13;;;23.20;62.10;;;;;;5087508;28;20964;-43
2022/08/14 02:38:42;;;;;;;9.00;8.10;;;23.10;62.30;;;;;;5076294;28;20510;-44
2022/08/14 02:41:12;;;;;;;8.40;7.70;;;23.00;62.80;;;;;;5071181;28;20455;-44
2022/08/14 02:43:40;;;;;;;8.77;7.97;;;23.00;62.80;;;;;;5086980;28;20490;-44
2022/08/14 02:46:13;;;;;;;8.57;7.80;;;22.90;62.90;;;;;;5072717;28;20520;-44
2022/08/14 02:48:50;;;;;;;7.93;7.23;;;22.80;63.60;;;;;;5073529;28;20541;-44
2022/08/14 02:51:33;;;;;;;8.27;7.47;;;22.80;63.70;;;;;;5089292;28;20493;-44
2022/08/14 02:54:03;;;;;;;9.10;8.20;;;22.70;63.80;;;;;;5074570;28;20973;-45
2022/08/14 02:56:30;;;;;;;8.37;7.57;;;22.70;64.00;;;;;;5063720;28;20969;-45
2022/08/14 02:59:18;;;;;;;9.03;8.23;;;22.70;63.80;;;;;;5075901;28;20862;-45
2022/08/14 03:01:46;;;;;;;8.80;8.00;;;22.70;63.90;;;;;;5088091;28;20839;-45
2022/08/14 03:04:21;;;;;;;7.90;7.10;;;22.60;64.00;;;;;;5088069;28;21009;-45
2022/08/14 03:06:49;;;;;;;7.70;7.00;;;22.60;64.30;;;;;;5068791;28;20552;-45
2022/08/14 03:09:32;;;;;;;9.53;8.63;;;22.50;64.40;;;;;;5069333;28;20465;-45
2022/08/14 03:12:20;;;;;;;8.63;7.80;;;22.50;64.70;;;;;;5073379;28;20448;-45
2022/08/14 03:14:58;;;;;;;8.33;7.63;;;22.50;64.90;;;;;;5084362;28;20808;-45
2022/08/14 03:17:25;;;;;;;9.13;8.33;;;22.50;64.90;;;;;;5086511;28;20460;-45
2022/08/14 03:19:57;;;;;;;9.10;8.20;;;22.40;65.10;;;;;;5086562;28;20475;-45
2022/08/14 03:22:28;;;;;;;11.00;9.20;;;22.30;65.40;;;;;;5069657;28;20456;-45
2022/08/14 03:24:55;;;;;;;8.20;7.50;;;22.30;65.10;;;;;;5086380;28;20528;-45
2022/08/14 03:27:22;;;;;;;9.20;8.40;;;22.30;65.10;;;;;;5075531;28;20555;-45
2022/08/14 03:30:02;;;;;;;9.73;8.37;;;22.40;65.20;;;;;;5072912;28;20464;-45
2022/08/14 03:32:33;;;;;;;8.80;8.00;;;22.40;65.00;;;;;;5089412;28;20916;-45
2022/08/14 03:35:00;;;;;;;9.33;8.53;;;22.50;64.90;;;;;;5072696;28;20464;-45
2022/08/14 03:37:35;;;;;;;8.33;7.67;;;22.50;64.70;;;;;;5074106;28;20472;-45
2022/08/14 03:40:23;;;;;;;10.63;8.13;;;22.50;64.90;;;;;;5084614;28;20468;-45
2022/08/14 03:42:50;;;;;;;9.50;8.53;;;22.50;64.80;;;;;;5086416;28;20463;-45
2022/08/14 03:45:17;;;;;;;9.80;8.87;;;22.50;64.70;;;;;;5085349;28;20467;-45
2022/08/14 03:48:17;;;;;;;10.00;8.90;;;22.60;64.50;;;;;;5087353;28;21470;-45
2022/08/14 03:50:58;;;;;;;10.00;9.00;;;22.70;64.30;;;;;;5073567;28;20464;-46
2022/08/14 03:53:27;;;;;;;9.37;8.47;;;22.70;64.30;;;;;;5074299;28;20593;-45
2022/08/14 03:55:57;;;;;;;9.50;8.60;;;22.60;64.50;;;;;;5077171;28;20518;-45
2022/08/14 03:58:24;;;;;;;8.97;8.17;;;22.50;64.70;;;;;;5086733;28;21894;-45
2022/08/14 04:01:03;;;;;;;8.40;7.70;;;22.50;64.90;;;;;;5086126;28;20464;-45
2022/08/14 04:03:32;;;;;;;9.20;8.27;;;22.50;64.90;;;;;;5083998;28;20484;-45
2022/08/14 04:06:03;;;;;;;9.43;8.20;;;22.60;64.70;;;;;;5085219;28;20457;-45
2022/08/14 04:08:35;;;;;;;9.27;8.47;;;22.60;64.80;;;;;;5084956;28;20463;-45
2022/08/14 04:11:02;;;;;;;9.00;8.20;;;22.50;65.10;;;;;;5068390;28;20526;-45
2022/08/14 04:13:39;;;;;;;9.23;8.43;;;22.40;65.40;;;;;;5087489;28;20460;-46
2022/08/14 04:16:13;;;;;;;9.27;7.90;;;22.50;65.50;;;;;;5085361;28;20555;-45
2022/08/14 04:18:42;;;;;;;9.67;8.67;;;22.50;65.40;;;;;;5071615;28;20506;-45
2022/08/14 04:21:09;;;;;;;8.23;7.47;;;22.50;65.30;;;;;;5087609;28;20468;-45
2022/08/14 04:23:37;;;;;;;9.23;8.40;;;22.50;65.30;;;;;;5082970;28;20496;-46
2022/08/14 04:26:07;;;;;;;9.57;8.60;;;22.50;65.30;;;;;;5070503;28;20497;-45
2022/08/14 04:28:42;;;;;;;9.70;8.70;;;22.40;65.60;;;;;;5071384;28;20456;-45
2022/08/14 04:31:29;;;;;;;9.70;8.80;;;22.40;65.70;;;;;;5075428;28;20456;-45
2022/08/14 04:34:16;;;;;;;9.43;8.57;;;22.40;65.80;;;;;;5065522;28;20460;-45
2022/08/14 04:45:20;;;;;;;9.23;8.43;;;22.40;66.10;;;;;;5083619;28;20490;-45
2022/08/14 04:50:37;;;;;;;10.27;9.40;;;22.30;66.60;;;;;;5086832;28;20547;-45
2022/08/14 04:53:13;;;;;;;11.30;9.37;;;22.30;66.70;;;;;;5072283;28;20463;-45
2022/08/14 04:55:43;;;;;;;9.43;8.47;;;22.30;66.90;;;;;;5087045;28;20954;-45
2022/08/14 04:58:11;;;;;;;10.50;9.50;;;22.30;66.90;;;;;;5082853;28;20478;-45
2022/08/14 05:00:58;;;;;;;9.70;8.80;;;22.20;67.00;;;;;;5073702;28;20562;-45
2022/08/14 05:03:30;;;;;;;10.20;9.40;;;22.20;67.50;;;;;;5069793;28;20492;-45
2022/08/14 05:05:59;;;;;;;10.63;9.63;;;22.20;67.50;;;;;;5084698;28;20460;-45
2022/08/14 05:08:27;;;;;;;10.23;9.43;;;22.20;67.40;;;;;;5055670;28;20949;-45
2022/08/14 05:11:14;;;;;;;10.23;9.33;;;22.30;67.10;;;;;;5083320;28;20461;-45
2022/08/14 05:13:42;;;;;;;10.17;9.27;;;22.20;67.30;;;;;;5086975;28;20456;-45
2022/08/14 05:16:30;;;;;;;11.30;10.30;;;22.20;67.40;;;;;;5074463;28;21062;-45
2022/08/14 05:18:57;;;;;;;10.90;8.93;;;22.20;67.30;;;;;;5084394;28;20483;-45
2022/08/14 05:21:44;;;;;;;10.53;9.53;;;22.30;67.50;;;;;;5083645;28;20457;-45
2022/08/14 05:24:27;;;;;;;10.07;9.07;;;22.40;67.50;;;;;;5083638;28;20508;-45
2022/08/14 05:26:54;;;;;;;9.53;8.47;;;22.40;67.30;;;;;;5085364;28;20470;-45
2022/08/14 05:29:22;;;;;;;10.20;9.20;;;22.50;67.10;;;;;;5085534;28;20545;-45
2022/08/14 05:31:49;;;;;;;10.37;9.33;;;22.50;66.90;;;;;;5074214;28;20799;-46
2022/08/14 05:34:22;;;;;;;11.70;10.53;;;22.60;67.10;;;;;;5083639;28;21209;-46
2022/08/14 05:36:56;;;;;;;10.73;9.73;;;22.60;67.00;;;;;;5084553;28;20467;-46
2022/08/14 05:39:28;;;;;;;12.60;10.07;;;22.70;66.60;;;;;;5086549;28;20453;-46
2022/08/14 05:41:56;;;;;;;10.30;9.40;;;22.80;66.30;;;;;;5087326;28;20441;-46
2022/08/14 05:44:23;;;;;;;10.37;9.37;;;22.80;66.30;;;;;;5086891;28;20484;-46
2022/08/14 05:46:55;;;;;;;10.90;10.00;;;22.80;66.40;;;;;;5087128;28;20483;-46
2022/08/14 05:49:22;;;;;;;10.77;9.67;;;22.80;66.30;;;;;;5087786;28;20959;-46
2022/08/14 05:51:58;;;;;;;10.80;9.80;;;22.80;66.50;;;;;;5086987;28;20444;-46
2022/08/14 05:54:27;;;;;;;12.33;9.67;;;22.70;66.80;;;;;;5086455;28;20441;-46
2022/08/14 05:57:01;;;;;;;12.00;10.90;;;22.70;66.90;;;;;;5088228;28;20478;-46
2022/08/14 05:59:28;;;;;;;10.97;9.70;;;22.70;66.90;;;;;;5089030;28;20510;-46
2022/08/14 06:02:05;;;;;;;11.13;10.10;;;22.80;66.80;;;;;;5088468;28;20501;-46
2022/08/14 06:04:31;;;;;;;10.90;10.00;;;22.90;66.70;;;;;;5085780;28;20495;-46
2022/08/14 06:06:58;;;;;;;12.40;11.30;;;23.00;66.40;;;;;;5090534;28;20460;-46
2022/08/14 06:09:25;;;;;;;10.83;9.63;;;23.00;66.20;;;;;;5075217;28;20445;-46
2022/08/14 06:11:52;;;;;;;12.20;11.00;;;23.10;66.00;;;;;;5088115;28;20962;-46
2022/08/14 06:14:19;;;;;;;11.73;10.63;;;23.20;65.90;;;;;;5087570;28;21200;-46
2022/08/14 06:16:50;;;;;;;11.03;10.03;;;23.20;66.00;;;;;;5082934;28;21030;-46
2022/08/14 06:19:19;;;;;;;11.20;10.20;;;23.20;66.10;;;;;;5080461;28;20461;-46
2022/08/14 06:21:49;;;;;;;11.30;10.30;;;23.20;65.90;;;;;;5089337;28;20958;-46
2022/08/14 06:24:24;;;;;;;10.87;9.90;;;23.30;65.80;;;;;;5072452;28;20482;-46
2022/08/14 06:26:51;;;;;;;11.23;10.13;;;23.40;65.40;;;;;;5072715;28;20461;-46
2022/08/14 06:29:30;;;;;;;12.20;11.20;;;23.50;65.20;;;;;;5085653;28;20436;-46
2022/08/14 06:31:59;;;;;;;12.07;10.90;;;23.70;64.80;;;;;;5056184;28;21067;-46
2022/08/14 06:34:46;;;;;;;11.20;10.20;;;23.70;64.70;;;;;;5077762;28;20475;-46
2022/08/14 06:37:46;;;;;;;10.80;9.90;;;23.90;64.30;;;;;;5082612;28;20456;-46
2022/08/14 06:40:18;;;;;;;11.97;10.80;;;23.90;64.00;;;;;;5085475;28;20902;-46
2022/08/14 06:42:58;;;;;;;10.67;9.67;;;23.90;63.90;;;;;;5086070;28;20914;-46
2022/08/14 06:45:30;;;;;;;11.13;10.13;;;24.00;63.90;;;;;;5081595;28;20854;-46
2022/08/14 06:47:57;;;;;;;11.23;10.17;;;24.00;63.70;;;;;;5075278;28;20448;-46
2022/08/14 06:50:26;;;;;;;10.90;9.80;;;24.10;63.70;;;;;;5072965;28;20449;-46
2022/08/14 06:52:58;;;;;;;10.87;9.90;;;24.00;63.80;;;;;;5070280;28;20452;-46
2022/08/14 06:55:25;;;;;;;11.33;10.33;;;24.00;63.60;;;;;;5086757;28;20444;-46
2022/08/14 06:57:55;;;;;;;12.33;10.97;;;24.00;63.70;;;;;;5073402;28;20495;-46
2022/08/14 07:00:25;;;;;;;12.00;10.80;;;23.90;63.70;;;;;;5054828;28;21023;-44
2022/08/14 07:05:45;;;;;;;12.37;11.07;;;23.80;64.10;;;;;;5084776;28;20498;-45
2022/08/14 07:08:27;;;;;;;10.57;9.77;;;23.80;64.30;;;;;;5081634;28;20501;-46
2022/08/14 07:10:59;;;;;;;10.97;10.10;;;23.90;64.10;;;;;;5070720;28;20953;-44
2022/08/14 07:13:27;;;;;;;11.17;10.07;;;24.00;63.80;;;;;;5087258;28;20987;-44
2022/08/14 07:15:57;;;;;;;10.87;9.87;;;24.10;63.50;;;;;;5092740;28;20864;-45
2022/08/14 07:18:28;;;;;;;13.10;10.97;;;24.20;63.30;;;;;;5085340;28;20452;-46
2022/08/14 07:20:56;;;;;;;11.47;10.50;;;24.30;62.80;;;;;;5083161;28;20452;-46
2022/08/14 07:23:24;;;;;;;11.40;10.20;;;24.30;62.70;;;;;;5085112;28;20471;-46
2022/08/14 07:25:54;;;;;;;11.97;10.77;;;24.30;62.70;;;;;;5084962;28;21086;-46
2022/08/14 07:28:25;;;;;;;12.33;11.13;;;24.40;62.20;;;;;;5070435;28;20883;-46
2022/08/14 07:30:56;;;;;;;12.17;11.17;;;24.50;62.30;;;;;;5068994;28;20482;-46
2022/08/14 07:33:35;;;;;;;11.13;10.13;;;24.70;61.70;;;;;;5088644;28;20444;-46
2022/08/14 07:36:05;;;;;;;10.53;9.63;;;24.80;61.20;;;;;;5058037;28;20464;-46
2022/08/14 07:38:52;;;;;;;11.20;10.27;;;24.90;61.10;;;;;;5070791;28;20919;-46
2022/08/14 07:41:19;;;;;;;10.93;10.03;;;24.90;60.90;;;;;;5068645;28;20456;-45
2022/08/14 07:43:47;;;;;;;10.77;9.60;;;24.90;61.00;;;;;;5063931;28;20570;-46
2022/08/14 07:46:23;;;;;;;11.70;10.57;;;24.90;60.90;;;;;;5079136;28;20452;-45
2022/08/14 07:48:57;;;;;;;10.83;9.80;;;25.00;60.80;;;;;;5079183;28;20543;-45
2022/08/14 07:51:24;;;;;;;11.63;10.60;;;25.10;60.50;;;;;;5084980;28;20973;-45
2022/08/14 07:53:52;;;;;;;10.40;9.40;;;25.20;60.50;;;;;;5083263;28;20448;-46
2022/08/14 07:56:23;;;;;;;10.83;9.90;;;25.30;59.90;;;;;;5067763;28;20456;-44
2022/08/14 07:59:10;;;;;;;9.97;9.07;;;25.40;59.80;;;;;;5073588;28;21014;-44
2022/08/14 08:01:39;;;;;;;10.93;9.97;;;25.50;59.60;;;;;;5087203;28;20472;-44
2022/08/14 08:04:21;;;;;;;11.10;10.00;;;25.60;59.10;;;;;;5073233;28;20882;-44
2022/08/14 08:06:51;;;;;;;10.07;9.27;;;25.60;59.30;;;;;;5088006;28;20836;-45
2022/08/14 08:09:23;;;;;;;11.23;10.23;;;25.80;58.70;;;;;;5087322;28;20882;-46
2022/08/14 08:11:51;;;;;;;11.00;10.00;;;25.90;58.50;;;;;;5073284;28;20451;-45
2022/08/14 08:14:23;;;;;;;11.20;10.20;;;26.20;57.90;;;;;;5071609;28;20456;-44
2022/08/14 08:16:53;;;;;;;11.50;10.43;;;26.30;57.40;;;;;;5086495;28;20495;-44
2022/08/14 08:19:20;;;;;;;10.20;9.30;;;26.30;57.10;;;;;;5086295;28;20452;-44
2022/08/14 08:21:47;;;;;;;10.73;9.63;;;26.50;56.90;;;;;;5086401;28;20455;-45
2022/08/14 08:24:15;;;;;;;10.20;9.30;;;26.60;56.80;;;;;;5071272;28;20484;-44
2022/08/14 08:26:47;;;;;;;11.60;10.40;;;26.70;56.60;;;;;;5086996;28;20535;-45
2022/08/14 08:29:21;;;;;;;10.20;9.30;;;26.80;55.60;;;;;;5070953;28;20909;-44
2022/08/14 08:31:56;;;;;;;10.20;9.20;;;26.90;55.10;;;;;;5085744;28;20518;-46
2022/08/14 08:34:45;;;;;;;9.17;8.43;;;27.00;54.60;;;;;;5071574;28;20439;-46
2022/08/14 08:37:13;;;;;;;9.90;9.20;;;27.20;54.50;;;;;;5084654;28;20444;-46
2022/08/14 08:39:48;;;;;;;9.93;9.13;;;27.20;54.30;;;;;;5084603;28;20448;-46
2022/08/14 08:42:31;;;;;;;9.17;8.47;;;27.40;53.70;;;;;;5068793;28;20437;-46
2022/08/14 08:45:19;;;;;;;10.70;8.07;;;27.50;53.50;;;;;;5084689;28;20513;-46
2022/08/14 08:47:47;;;;;;;9.30;8.50;;;27.50;52.50;;;;;;5086114;28;20459;-47
2022/08/14 08:50:20;;;;;;;10.20;9.23;;;27.60;52.70;;;;;;5085388;28;20467;-46
2022/08/14 08:52:51;;;;;;;10.73;9.73;;;27.70;52.50;;;;;;5061805;28;20431;-46
2022/08/14 08:55:37;;;;;;;8.50;7.80;;;27.90;52.20;;;;;;5084641;28;20641;-46
2022/08/14 08:58:13;;;;;;;8.97;8.17;;;27.90;51.80;;;;;;5085560;28;20229;-46
2022/08/14 09:00:50;;;;;;;9.20;8.40;;;28.00;51.10;;;;;;5072309;28;20980;-46
2022/08/14 09:03:23;;;;;;;9.20;8.27;;;28.10;50.90;;;;;;5070076;28;20491;-46
2022/08/14 09:05:54;;;;;;;9.33;8.43;;;28.10;50.50;;;;;;5070272;28;20233;-46
2022/08/14 09:08:27;;;;;;;8.50;7.80;;;28.10;50.50;;;;;;5069995;28;20500;-45
2022/08/14 09:11:04;;;;;;;8.60;7.80;;;28.20;50.20;;;;;;5062800;28;20476;-44
2022/08/14 09:13:49;;;;;;;7.90;7.20;;;28.30;50.20;;;;;;5086345;28;20444;-44
2022/08/14 09:16:24;;;;;;;8.40;7.70;;;28.50;49.80;;;;;;5084067;28;20209;-43
2022/08/14 09:18:52;;;;;;;8.43;7.63;;;28.60;49.20;;;;;;5088182;28;20205;-44
2022/08/14 09:21:21;;;;;;;9.00;8.20;;;28.50;49.40;;;;;;5088873;28;20213;-46
2022/08/14 09:23:52;;;;;;;8.67;7.97;;;28.70;49.30;;;;;;5076014;28;20214;-44
2022/08/14 09:26:40;;;;;;;9.13;8.23;;;28.80;48.70;;;;;;5059986;28;20202;-44
2022/08/14 09:29:10;;;;;;;8.37;7.67;;;28.90;48.80;;;;;;5089961;28;20224;-44
2022/08/14 09:31:47;;;;;;;9.30;8.17;;;29.00;48.90;;;;;;5088816;28;20269;-44
2022/08/14 09:34:41;;;;;;;8.80;8.00;;;29.10;48.80;;;;;;5089018;28;20287;-44
2022/08/14 09:37:47;;;;;;;9.50;8.40;;;29.40;48.40;;;;;;5089238;28;20228;-45
2022/08/14 09:40:49;;;;;;;9.00;8.10;;;29.30;48.20;;;;;;5088800;28;20218;-44
2022/08/14 09:43:50;;;;;;;8.80;8.10;;;29.40;48.30;;;;;;5078422;28;20724;-43
2022/08/14 09:46:17;;;;;;;9.23;8.43;;;29.60;47.70;;;;;;5037792;28;20246;-44
2022/08/14 09:49:28;;;;;;;9.73;8.85;;;29.80;47.30;;;;;;5068241;28;20202;-45
2022/08/14 09:52:04;;;;;;;10.15;9.15;;;29.80;47.10;;;;;;5091218;28;20270;-44
2022/08/14 09:54:50;;;;;;;8.88;8.18;;;30.00;47.30;;;;;;5089285;28;20209;-44
2022/08/14 09:57:26;;;;;;;8.82;8.13;;;30.10;46.70;;;;;;5089860;28;20226;-44
2022/08/14 09:59:54;;;;;;;8.53;7.70;;;29.90;47.10;;;;;;5087737;28;20809;-44
2022/08/14 10:02:26;;;;;;;8.48;7.78;;;29.90;47.10;;;;;;5089403;28;20206;-44
2022/08/14 10:05:06;;;;;;;8.30;7.60;;;30.20;46.70;;;;;;5069673;28;20226;-44
2022/08/14 10:07:51;;;;;;;9.52;7.50;;;30.30;46.30;;;;;;5091155;28;20241;-44
2022/08/14 10:10:40;;;;;;;8.50;7.90;;;30.50;45.50;;;;;;5090556;28;20211;-44
2022/08/14 10:13:23;;;;;;;7.88;7.22;;;30.30;46.10;;;;;;5091966;28;20218;-44
2022/08/14 10:15:50;;;;;;;8.95;8.23;;;30.60;46.00;;;;;;5091333;28;20210;-44
2022/08/14 10:18:20;;;;;;;8.70;8.00;;;30.70;45.10;;;;;;5090346;28;20221;-44
2022/08/14 10:20:56;;;;;;;7.82;7.28;;;30.50;44.90;;;;;;5077217;28;20566;-46
2022/08/14 10:23:26;;;;;;;7.13;6.63;;;30.50;44.70;;;;;;5086770;28;20273;-46
2022/08/14 10:26:05;;;;;;;8.25;7.55;;;30.50;44.70;;;;;;5075464;28;20237;-46
2022/08/14 10:28:41;;;;;;;7.68;6.95;;;30.50;44.70;;;;;;5086418;28;20814;-46
2022/08/14 10:31:30;;;;;;;6.80;6.20;;;30.60;44.00;;;;;;5087107;28;20543;-46
2022/08/14 10:34:12;;;;;;;7.03;6.32;;;30.70;43.40;;;;;;5071649;28;20256;-44
2022/08/14 10:36:42;;;;;;;7.50;6.90;;;30.60;43.10;;;;;;5073938;28;20216;-43
2022/08/14 10:39:22;;;;;;;7.40;6.28;;;30.60;43.30;;;;;;5073446;28;20210;-44
2022/08/14 10:42:10;;;;;;;6.45;5.95;;;30.60;43.50;;;;;;5091154;28;20568;-44
2022/08/14 10:44:48;;;;;;;6.80;6.30;;;30.40;42.80;;;;;;5088994;28;20221;-44
2022/08/14 10:47:18;;;;;;;6.85;6.32;;;30.30;43.40;;;;;;5077302;28;20724;-44
2022/08/14 10:50:08;;;;;;;6.15;5.75;;;30.40;43.40;;;;;;5072461;28;20206;-44
2022/08/14 10:52:41;;;;;;;7.25;6.45;;;30.50;43.50;;;;;;5089250;28;20271;-44
2022/08/14 10:55:12;;;;;;;6.20;5.70;;;30.40;42.60;;;;;;5086344;28;20628;-44
2022/08/14 10:57:49;;;;;;;6.57;6.07;;;30.30;42.60;;;;;;5072597;28;20546;-44
2022/08/14 11:00:25;;;;;;;6.47;5.97;;;30.30;42.40;;;;;;5086522;28;20238;-46
2022/08/14 11:03:08;;;;;;;6.43;5.93;;;30.30;42.80;;;;;;5089202;28;20260;-46
2022/08/14 11:05:44;;;;;;;6.80;6.30;;;30.30;42.80;;;;;;5086320;28;20308;-46
2022/08/14 11:08:15;;;;;;;6.45;5.95;;;30.10;42.60;;;;;;5087240;28;20209;-46
2022/08/14 11:10:48;;;;;;;7.13;6.53;;;30.10;42.40;;;;;;5087382;28;20471;-46
2022/08/14 11:13:26;;;;;;;7.32;6.72;;;30.00;42.80;;;;;;5086791;28;20233;-46
2022/08/14 11:16:00;;;;;;;7.25;6.75;;;30.00;42.30;;;;;;5069820;28;20639;-46
2022/08/14 11:18:29;;;;;;;6.47;5.88;;;29.90;42.50;;;;;;5070557;28;20685;-46
2022/08/14 11:21:06;;;;;;;7.18;6.63;;;29.80;42.00;;;;;;5085227;28;20271;-46
2022/08/14 11:23:37;;;;;;;7.18;6.57;;;29.90;42.50;;;;;;5087294;28;20567;-45
2022/08/14 11:26:08;;;;;;;6.38;5.88;;;29.80;42.50;;;;;;5087764;28;20710;-45
2022/08/14 11:28:42;;;;;;;6.33;5.80;;;29.70;42.60;;;;;;5088338;28;20202;-45
2022/08/14 11:31:18;;;;;;;6.30;5.80;;;29.60;42.80;;;;;;5087238;28;20238;-45
2022/08/14 11:33:50;;;;;;;4.80;4.50;;;29.60;41.80;;;;;;5087634;28;20670;-45
2022/08/14 11:36:21;;;;;;;6.23;5.23;;;29.60;40.20;;;;;;5068142;28;20211;-46
2022/08/14 11:38:48;;;;;;;6.80;6.20;;;29.60;40.40;;;;;;5080387;28;20214;-46
2022/08/14 11:41:17;;;;;;;6.43;5.93;;;29.70;41.60;;;;;;5084441;28;20206;-46
2022/08/14 11:43:46;;;;;;;6.25;5.75;;;29.80;42.50;;;;;;5079458;28;20213;-46
2022/08/14 11:46:25;;;;;;;6.30;5.80;;;29.80;41.50;;;;;;5081298;28;20233;-46
2022/08/14 11:49:04;;;;;;;6.05;5.53;;;29.70;41.70;;;;;;5081166;28;20229;-46
2022/08/14 11:51:33;;;;;;;6.32;5.72;;;29.70;41.00;;;;;;5075424;28;20203;-46
2022/08/14 11:54:21;;;;;;;5.85;5.30;;;29.60;40.50;;;;;;5078452;28;20198;-46
2022/08/14 11:57:02;;;;;;;6.30;5.72;;;29.50;40.20;;;;;;5070043;28;20232;-46
2022/08/14 11:59:32;;;;;;;6.27;5.77;;;29.50;40.60;;;;;;5078615;28;20206;-46
2022/08/14 12:02:16;;;;;;;6.13;5.53;;;29.40;41.40;;;;;;5080541;28;20249;-46
2022/08/14 12:05:03;;;;;;;7.00;6.40;;;29.40;41.00;;;;;;5083653;28;20214;-46
2022/08/14 12:07:35;;;;;;;6.13;5.70;;;29.40;41.50;;;;;;5062790;28;20267;-46
2022/08/14 12:10:09;;;;;;;7.38;6.78;;;29.50;41.80;;;;;;5080723;28;20206;-46
2022/08/14 12:12:56;;;;;;;6.23;5.80;;;29.60;41.60;;;;;;5060715;28;20210;-46
2022/08/14 12:15:34;;;;;;;6.43;5.93;;;29.60;41.40;;;;;;5048909;28;20207;-46
2022/08/14 12:18:01;;;;;;;5.90;5.40;;;29.70;41.60;;;;;;5049216;28;20305;-46
2022/08/14 12:20:32;;;;;;;6.67;5.97;;;29.60;41.40;;;;;;5065093;28;20206;-46
2022/08/14 12:23:01;;;;;;;6.73;6.13;;;29.60;41.50;;;;;;5087334;28;20232;-46
2022/08/14 12:25:31;;;;;;;7.15;6.18;;;29.60;41.50;;;;;;5070316;28;20237;-46
2022/08/14 12:28:04;;;;;;;6.40;5.80;;;29.70;41.60;;;;;;5072080;28;20208;-46
2022/08/14 12:30:38;;;;;;;7.10;6.50;;;29.70;41.70;;;;;;5080830;28;20221;-46
2022/08/14 12:33:31;;;;;;;8.25;6.18;;;29.80;41.30;;;;;;5069390;28;20233;-46
2022/08/14 12:36:02;;;;;;;6.53;5.90;;;29.80;41.40;;;;;;5080869;28;20679;-46
2022/08/14 12:38:33;;;;;;;6.95;6.40;;;29.80;41.30;;;;;;5082126;28;20267;-46
2022/08/14 12:41:07;;;;;;;6.78;6.00;;;29.80;41.10;;;;;;5082238;28;20243;-46
2022/08/14 12:43:55;;;;;;;5.88;5.47;;;29.70;41.10;;;;;;5080985;28;20210;-46
2022/08/14 12:46:25;;;;;;;7.75;6.95;;;29.70;40.90;;;;;;5081870;28;20219;-46
2022/08/14 12:48:57;;;;;;;6.38;5.88;;;29.80;40.80;;;;;;5084693;28;20288;-46
2022/08/14 12:51:26;;;;;;;6.28;5.88;;;29.90;40.80;;;;;;5060593;28;20582;-46
2022/08/14 12:53:55;;;;;;;7.88;7.18;;;29.80;40.60;;;;;;5088896;28;20201;-45
2022/08/14 12:56:26;;;;;;;6.82;6.05;;;29.70;40.30;;;;;;5090210;28;20235;-46
2022/08/14 12:59:00;;;;;;;6.50;6.00;;;29.80;40.70;;;;;;5089479;28;20276;-46
2022/08/14 13:01:30;;;;;;;7.10;6.50;;;29.90;41.00;;;;;;5090865;28;20217;-46
2022/08/14 13:04:16;;;;;;;6.95;6.13;;;30.00;40.80;;;;;;5091318;28;20671;-46
2022/08/14 13:06:46;;;;;;;6.53;6.03;;;29.90;40.70;;;;;;5060533;28;20261;-46
2022/08/14 13:09:18;;;;;;;5.70;5.20;;;29.90;40.30;;;;;;5074919;28;20206;-46
2022/08/14 13:11:50;;;;;;;6.38;5.78;;;29.90;40.30;;;;;;5091006;28;20210;-46
2022/08/14 13:14:37;;;;;;;5.77;5.37;;;29.90;40.60;;;;;;5090210;28;20213;-45
2022/08/14 13:17:04;;;;;;;6.78;6.18;;;29.80;40.50;;;;;;5089708;28;20221;-46
2022/08/14 13:19:34;;;;;;;6.38;5.72;;;29.80;40.70;;;;;;5078363;28;20272;-46
2022/08/14 13:22:02;;;;;;;6.68;6.07;;;29.80;40.80;;;;;;5071868;28;20296;-46
2022/08/14 13:24:38;;;;;;;7.70;7.00;;;29.90;40.50;;;;;;5090706;28;20217;-46
2022/08/14 13:27:07;;;;;;;6.60;5.97;;;30.00;40.60;;;;;;5087607;28;20223;-46
2022/08/14 13:29:40;;;;;;;6.30;5.90;;;30.10;40.50;;;;;;5087507;28;20674;-46
2022/08/14 13:32:13;;;;;;;7.47;6.88;;;30.20;40.70;;;;;;5086397;28;20214;-46
2022/08/14 13:34:42;;;;;;;6.30;5.80;;;30.20;40.30;;;;;;5078031;28;20217;-46
2022/08/14 13:37:13;;;;;;;7.85;7.15;;;30.30;40.10;;;;;;5071449;28;20730;-46